Time;durP1;ratioP1;P1;durP2;ratioP2;P2;SDS_P1;SDS_P2;PMS_P1;PMS_P2;Temp;Humidity;BMP_temperature;BMP_pressure;BME280_temperature;BME280_humidity;BME280_pressure;Samples;Min_cycle;Max_cycle;Signal;HPM_P1;HPM_P2
2021/12/18 00:01:04;;;;;;;18.08;11.32;;;;;;;10.18;68.69;104210.69;5189744;28;20433;-44
2021/12/18 00:03:37;;;;;;;22.25;11.73;;;;;;;10.18;68.60;104197.50;5188675;28;20461;-44
2021/12/18 00:06:10;;;;;;;19.88;11.23;;;;;;;10.15;68.82;104198.47;5186342;28;20413;-45
2021/12/18 00:08:43;;;;;;;19.70;11.37;;;;;;;9.96;68.78;104165.84;5189246;28;20974;-44
2021/12/18 00:11:15;;;;;;;22.33;12.63;;;;;;;10.15;68.82;104195.84;5186898;28;20422;-43
2021/12/18 00:13:49;;;;;;;19.90;10.98;;;;;;;10.11;68.91;104193.41;5183479;28;20405;-45
2021/12/18 00:16:21;;;;;;;17.17;9.82;;;;;;;10.07;68.83;104195.31;5191010;28;20469;-44
2021/12/18 00:18:57;;;;;;;16.65;9.63;;;;;;;10.09;68.81;104196.09;5188307;28;20514;-44
2021/12/18 00:21:30;;;;;;;14.13;8.00;;;;;;;10.07;68.87;104192.69;5191970;28;20838;-42
2021/12/18 00:24:03;;;;;;;12.05;6.45;;;;;;;10.00;69.05;104193.84;5186485;28;20402;-43
2021/12/18 00:26:36;;;;;;;7.80;5.80;;;;;;;9.96;69.01;104188.75;5180101;28;20403;-44
2021/12/18 00:29:08;;;;;;;9.98;5.88;;;;;;;9.96;69.04;104186.97;5184268;28;20556;-48
2021/12/18 00:31:41;;;;;;;11.98;6.20;;;;;;;9.93;68.92;104171.25;5184408;28;20962;-44
2021/12/18 00:34:15;;;;;;;9.55;6.40;;;;;;;9.99;69.04;104184.22;5187366;28;20887;-44
2021/12/18 00:36:49;;;;;;;12.25;6.55;;;;;;;10.02;68.84;104192.00;5191352;28;20779;-44
2021/12/18 00:39:21;;;;;;;9.80;5.78;;;;;;;9.99;68.84;104178.94;5185354;28;20530;-44
2021/12/18 00:44:53;;;;;;;6.90;5.07;;;;;;;9.90;68.98;104166.97;5210982;27;20480;-44
2021/12/18 00:47:26;;;;;;;8.95;4.72;;;;;;;9.92;69.01;104186.25;5193609;28;20902;-43
2021/12/18 00:49:58;;;;;;;6.90;4.45;;;;;;;9.86;68.92;104170.66;5199912;28;20416;-44
2021/12/18 00:52:30;;;;;;;7.20;5.10;;;;;;;9.88;68.96;104183.81;5195052;28;20936;-43
2021/12/18 00:55:03;;;;;;;8.00;4.80;;;;;;;9.93;68.96;104181.81;5202837;28;20592;-44
2021/12/18 00:57:36;;;;;;;7.78;5.25;;;;;;;9.98;68.97;104174.56;5205523;28;20501;-44
2021/12/18 01:00:13;;;;;;;6.70;4.57;;;;;;;9.99;68.79;104178.06;5194040;28;20476;-50
2021/12/18 01:02:45;;;;;;;6.85;4.70;;;;;;;10.01;68.87;104182.38;5192251;28;20513;-44
2021/12/18 01:05:18;;;;;;;6.90;4.35;;;;;;;9.93;68.98;104181.81;5199963;28;20833;-44
2021/12/18 01:07:50;;;;;;;7.55;4.88;;;;;;;9.91;68.97;104181.03;5200376;28;20417;-44
2021/12/18 01:10:38;;;;;;;5.77;4.20;;;;;;;9.86;69.04;104180.38;5206187;28;20427;-44
2021/12/18 01:13:16;;;;;;;5.82;4.35;;;;;;;9.68;69.18;104164.34;5186085;28;20426;-44
2021/12/18 01:15:53;;;;;;;6.35;4.03;;;;;;;9.75;69.21;104185.22;5198430;28;20433;-44
2021/12/18 01:24:06;;;;;;;8.23;5.00;;;;;;;9.77;69.15;104175.47;5204726;28;20460;-46
2021/12/18 01:26:39;;;;;;;5.35;3.85;;;;;;;9.77;69.13;104181.59;5193361;28;20766;-48
2021/12/18 01:29:11;;;;;;;5.70;4.15;;;;;;;9.62;69.17;104171.66;5195300;28;20758;-44
2021/12/18 01:31:45;;;;;;;7.05;3.90;;;;;;;9.65;69.19;104182.94;5187004;28;20774;-44
2021/12/18 01:34:17;;;;;;;4.87;3.70;;;;;;;9.63;69.30;104184.81;5196557;28;20493;-45
2021/12/18 01:36:49;;;;;;;4.30;3.60;;;;;;;9.61;69.33;104176.09;5197860;28;20552;-44
2021/12/18 01:39:22;;;;;;;4.40;3.70;;;;;;;9.66;69.12;104174.13;5189091;28;20415;-44
2021/12/18 01:42:12;;;;;;;5.60;3.60;;;;;;;9.76;68.99;104184.31;5195222;28;20517;-43
2021/12/18 01:45:02;;;;;;;4.95;3.42;;;;;;;9.77;68.86;104178.94;5198177;28;20450;-44
2021/12/18 01:53:22;;;;;;;7.00;4.45;;;;;;;9.69;68.68;104162.56;5179042;28;20425;-44
2021/12/18 01:55:54;;;;;;;6.28;4.15;;;;;;;9.80;68.81;104170.06;5186493;28;20415;-45
2021/12/18 01:58:27;;;;;;;7.68;4.60;;;;;;;9.86;68.78;104180.38;5184427;28;20418;-44
2021/12/18 02:01:03;;;;;;;6.00;4.00;;;;;;;9.83;68.72;104180.50;5186089;28;20860;-44
2021/12/18 02:03:36;;;;;;;6.32;4.45;;;;;;;9.79;68.75;104176.28;5167166;28;20417;-44
2021/12/18 02:06:09;;;;;;;4.40;4.00;;;;;;;9.74;68.81;104180.88;5177848;28;20431;-47
2021/12/18 02:08:44;;;;;;;6.70;4.30;;;;;;;9.64;68.80;104181.22;5181622;28;20531;-44
2021/12/18 02:11:39;;;;;;;8.70;4.85;;;;;;;9.55;69.08;104186.88;5170083;28;20520;-45
2021/12/18 02:14:34;;;;;;;13.32;4.78;;;;;;;9.44;69.24;104183.78;5160569;28;20444;-45
2021/12/18 02:20:22;;;;;;;8.02;5.38;;;;;;;9.34;69.39;104177.16;5177109;28;20411;-43
2021/12/18 02:22:55;;;;;;;12.82;6.10;;;;;;;9.39;69.23;104165.53;5178960;28;20462;-44
2021/12/18 02:25:30;;;;;;;11.40;6.68;;;;;;;9.46;69.13;104177.53;5184762;28;20881;-43
2021/12/18 02:28:07;;;;;;;23.92;6.60;;;;;;;9.45;69.13;104167.91;5182979;28;20772;-42
2021/12/18 02:30:39;;;;;;;11.77;6.30;;;;;;;9.48;69.03;104159.03;5175098;28;20407;-46
2021/12/18 02:33:12;;;;;;;16.88;6.25;;;;;;;9.50;69.07;104166.88;5190129;28;20903;-43
2021/12/18 02:35:48;;;;;;;15.57;6.15;;;;;;;9.47;68.98;104163.41;5175531;28;20914;-45
2021/12/18 02:38:31;;;;;;;17.80;6.20;;;;;;;9.43;69.07;104153.91;5195452;28;20527;-43
2021/12/18 02:41:11;;;;;;;13.55;5.90;;;;;;;9.51;69.00;104165.94;5178819;28;20431;-44
2021/12/18 02:43:44;;;;;;;13.20;5.75;;;;;;;9.50;69.07;104161.59;5176907;28;20419;-43
2021/12/18 02:46:19;;;;;;;25.45;5.80;;;;;;;9.45;69.23;104169.72;5186192;28;20428;-43
2021/12/18 02:48:54;;;;;;;12.13;5.53;;;;;;;9.37;69.05;104171.78;5186365;28;20439;-44
2021/12/18 02:51:27;;;;;;;18.85;5.95;;;;;;;9.37;69.18;104158.59;5171555;28;20722;-44
2021/12/18 02:54:00;;;;;;;11.88;6.05;;;;;;;9.50;68.99;104166.88;5192268;28;20426;-43
2021/12/18 02:56:32;;;;;;;11.65;6.15;;;;;;;9.58;68.84;104170.94;5182140;28;20406;-43
2021/12/18 02:59:09;;;;;;;12.03;5.67;;;;;;;9.63;68.64;104166.34;5181517;28;20416;-47
2021/12/18 03:01:41;;;;;;;9.02;5.45;;;;;;;9.64;68.68;104169.81;5175913;28;20751;-46
2021/12/18 03:04:19;;;;;;;9.68;4.85;;;;;;;9.63;68.67;104163.69;5176874;28;20804;-45
2021/12/18 03:06:58;;;;;;;14.70;4.78;;;;;;;9.60;68.67;104163.81;5178178;28;20423;-43
2021/12/18 03:23:57;;;;;;;8.20;4.25;;;;;;;9.17;69.02;104141.78;5162315;28;20973;-43
2021/12/18 03:26:29;;;;;;;8.00;4.05;;;;;;;9.31;69.07;104156.19;5155231;28;20885;-44
2021/12/18 03:29:04;;;;;;;10.50;3.47;;;;;;;9.26;68.92;104150.22;5166153;28;20796;-46
2021/12/18 03:31:36;;;;;;;8.05;3.47;;;;;;;9.31;68.99;104164.09;5154120;28;20408;-44
2021/12/18 03:34:09;;;;;;;6.63;3.38;;;;;;;9.33;68.87;104162.28;5151110;28;20394;-44
2021/12/18 03:36:41;;;;;;;12.43;3.50;;;;;;;9.25;69.02;104159.91;5173938;28;20516;-43
2021/12/18 03:39:15;;;;;;;6.72;3.03;;;;;;;9.16;69.04;104157.63;5165945;28;20494;-42
2021/12/18 03:41:48;;;;;;;15.95;3.13;;;;;;;9.05;69.14;104152.78;5164266;28;20795;-43
2021/12/18 03:44:22;;;;;;;20.05;2.17;;;;;;;8.93;69.21;104161.16;5170930;28;20430;-43
2021/12/18 03:46:55;;;;;;;15.25;3.00;;;;;;;8.86;69.37;104157.91;5160873;28;20753;-42
2021/12/18 03:49:28;;;;;;;9.93;3.20;;;;;;;8.81;69.29;104157.19;5170209;28;20440;-45
2021/12/18 03:52:01;;;;;;;11.75;3.15;;;;;;;8.73;69.32;104148.72;5160358;28;20419;-43
2021/12/18 03:54:33;;;;;;;10.25;3.05;;;;;;;8.77;69.42;104153.81;5170730;28;20489;-43
2021/12/18 03:57:06;;;;;;;9.15;3.58;;;;;;;8.72;69.53;104153.13;5156495;28;20423;-43
2021/12/18 03:59:40;;;;;;;8.18;3.72;;;;;;;8.80;69.40;104150.22;5158894;28;20414;-43
2021/12/18 04:02:24;;;;;;;11.23;2.90;;;;;;;8.77;69.23;104145.91;5160187;28;20484;-47
2021/12/18 04:04:57;;;;;;;9.60;2.50;;;;;;;8.68;69.39;104140.97;5164542;28;20759;-43
2021/12/18 04:07:29;;;;;;;9.25;2.50;;;;;;;8.65;69.45;104146.38;5161393;28;20434;-45
2021/12/18 04:10:01;;;;;;;8.15;2.30;;;;;;;8.69;69.34;104149.75;5165908;28;20422;-43
2021/12/18 04:12:34;;;;;;;4.10;2.05;;;;;;;8.69;69.58;104147.97;5189758;28;20889;-43
2021/12/18 04:15:09;;;;;;;6.00;2.37;;;;;;;8.72;69.26;104152.25;5190884;28;20469;-44
2021/12/18 04:17:41;;;;;;;5.30;2.88;;;;;;;8.66;69.23;104142.81;5182226;28;20424;-44
2021/12/18 04:20:14;;;;;;;18.10;2.85;;;;;;;8.53;69.38;104131.00;5189709;28;20401;-43
2021/12/18 04:22:46;;;;;;;7.82;2.20;;;;;;;8.62;69.38;104146.47;5174151;28;20435;-44
2021/12/18 04:25:19;;;;;;;9.07;2.20;;;;;;;8.53;69.41;104146.81;5172232;28;20437;-44
2021/12/18 04:27:51;;;;;;;13.50;3.28;;;;;;;8.47;69.56;104147.88;5161995;28;20417;-43
2021/12/18 04:30:25;;;;;;;7.88;2.67;;;;;;;8.50;69.54;104149.56;5178660;28;20907;-45
2021/12/18 04:32:58;;;;;;;7.68;2.72;;;;;;;8.57;69.44;104151.03;5176327;28;20438;-44
2021/12/18 04:35:30;;;;;;;9.80;3.15;;;;;;;8.53;69.19;104133.63;5170763;28;20411;-44
2021/12/18 04:38:03;;;;;;;7.40;2.67;;;;;;;8.63;69.26;104158.72;5184490;28;20413;-45
2021/12/18 04:40:35;;;;;;;11.85;2.90;;;;;;;8.58;69.26;104155.41;5172199;28;20747;-43
2021/12/18 04:43:08;;;;;;;18.17;3.33;;;;;;;8.59;69.21;104151.00;5168822;28;20508;-44
2021/12/18 04:45:42;;;;;;;7.53;3.70;;;;;;;8.53;69.37;104152.09;5175462;28;20930;-44
2021/12/18 04:48:14;;;;;;;18.70;3.78;;;;;;;8.53;69.31;104154.72;5175221;28;20412;-43
2021/12/18 04:50:46;;;;;;;7.97;2.97;;;;;;;8.49;69.39;104158.38;5176143;28;21339;-43
2021/12/18 04:53:19;;;;;;;5.38;2.50;;;;;;;8.40;69.35;104154.28;5181887;28;20403;-47
2021/12/18 04:55:51;;;;;;;13.68;3.60;;;;;;;8.23;69.69;104160.09;5178796;28;20407;-44
2021/12/18 04:58:23;;;;;;;13.00;3.50;;;;;;;8.21;69.60;104161.09;5183971;28;20468;-45
2021/12/18 05:00:57;;;;;;;16.10;2.88;;;;;;;8.17;69.73;104160.31;5172928;28;20434;-43
2021/12/18 05:03:30;;;;;;;12.80;3.35;;;;;;;8.21;69.55;104161.09;5170309;28;20442;-43
2021/12/18 05:06:03;;;;;;;9.83;3.37;;;;;;;8.27;69.44;104156.47;5179393;28;20432;-44
2021/12/18 05:08:35;;;;;;;11.00;3.00;;;;;;;8.07;69.36;104103.63;5173122;28;20419;-44
2021/12/18 05:11:08;;;;;;;17.38;3.40;;;;;;;8.43;69.14;104161.22;5165363;28;20419;-43
2021/12/18 05:13:40;;;;;;;14.13;3.08;;;;;;;8.49;69.15;104161.03;5174414;28;20408;-43
2021/12/18 05:16:14;;;;;;;16.77;2.92;;;;;;;8.54;68.98;104159.06;5171190;28;20427;-43
2021/12/18 05:18:46;;;;;;;10.05;3.30;;;;;;;8.55;68.92;104150.25;5166396;28;20409;-42
2021/12/18 05:21:19;;;;;;;8.60;1.90;;;;;;;8.53;69.07;104152.09;5176238;28;20420;-42
2021/12/18 05:23:51;;;;;;;6.82;1.83;;;;;;;8.38;69.13;104157.84;5177109;28;20423;-42
2021/12/18 05:26:23;;;;;;;8.32;1.90;;;;;;;8.34;69.30;104166.78;5173010;28;20425;-46
2021/12/18 05:28:56;;;;;;;7.00;2.10;;;;;;;8.25;69.39;104155.66;5176242;28;20417;-43
2021/12/18 05:31:29;;;;;;;9.67;2.60;;;;;;;8.21;69.52;104159.31;5170769;28;20925;-44
2021/12/18 05:34:04;;;;;;;14.20;2.53;;;;;;;8.12;69.62;104146.47;5170462;28;20563;-44
2021/12/18 05:36:51;;;;;;;22.92;2.58;;;;;;;8.18;69.53;104161.19;5175045;28;20902;-43
2021/12/18 05:39:31;;;;;;;6.20;2.57;;;;;;;8.20;69.41;104162.84;5166704;28;20434;-43
2021/12/18 05:42:04;;;;;;;7.70;2.55;;;;;;;8.13;69.40;104163.97;5168363;28;20413;-43
2021/12/18 05:44:36;;;;;;;7.80;3.03;;;;;;;8.06;69.51;104162.47;5169725;28;20418;-43
2021/12/18 05:47:10;;;;;;;11.30;2.95;;;;;;;7.95;69.54;104146.16;5173579;28;20521;-39
2021/12/18 05:49:43;;;;;;;9.95;2.90;;;;;;;8.06;69.47;104152.78;5172306;28;20423;-42
2021/12/18 05:52:16;;;;;;;8.25;2.63;;;;;;;8.07;69.46;104153.66;5174378;28;20426;-43
2021/12/18 05:54:48;;;;;;;7.68;3.25;;;;;;;7.95;69.61;104154.91;5175325;28;20403;-43
2021/12/18 05:57:20;;;;;;;6.68;3.25;;;;;;;7.84;69.72;104160.56;5171144;28;20421;-43
2021/12/18 05:59:52;;;;;;;8.38;3.30;;;;;;;7.80;69.91;104160.69;5173863;28;20435;-43
2021/12/18 06:02:26;;;;;;;8.93;3.47;;;;;;;7.89;69.63;104149.00;5172767;28;20480;-43
2021/12/18 06:04:59;;;;;;;6.38;2.75;;;;;;;7.95;69.40;104164.59;5177861;28;20428;-43
2021/12/18 06:07:38;;;;;;;8.95;2.90;;;;;;;7.96;69.48;104161.91;5160096;28;20423;-44
2021/12/18 06:10:10;;;;;;;7.05;2.95;;;;;;;8.01;69.47;104156.50;5158373;28;20436;-46
2021/12/18 06:12:43;;;;;;;12.90;2.97;;;;;;;8.05;69.31;104163.34;5165280;28;20937;-43
2021/12/18 06:15:16;;;;;;;20.67;2.95;;;;;;;8.04;69.35;104159.88;5170197;28;20561;-46
2021/12/18 06:17:49;;;;;;;16.83;2.63;;;;;;;8.05;69.33;104164.25;5170837;28;20891;-43
2021/12/18 06:20:22;;;;;;;11.65;2.65;;;;;;;8.04;69.26;104166.91;5173308;28;20422;-43
2021/12/18 06:22:55;;;;;;;17.57;3.37;;;;;;;7.99;69.40;104163.56;5183465;28;20486;-44
2021/12/18 06:25:27;;;;;;;7.23;3.00;;;;;;;7.90;69.52;104166.50;5173294;28;20407;-43
2021/12/18 06:28:00;;;;;;;16.27;3.55;;;;;;;7.78;69.49;104152.00;5167883;28;20411;-44
2021/12/18 06:30:32;;;;;;;17.70;3.85;;;;;;;7.89;69.49;104159.53;5178272;28;20824;-43
2021/12/18 06:33:06;;;;;;;11.35;3.35;;;;;;;7.86;69.52;104166.59;5176173;28;20752;-43
2021/12/18 06:35:38;;;;;;;13.07;3.58;;;;;;;7.89;69.43;104159.53;5179814;28;20415;-43
2021/12/18 06:38:11;;;;;;;11.55;3.85;;;;;;;7.89;69.49;104164.78;5170921;28;20395;-46
2021/12/18 06:40:43;;;;;;;24.50;5.23;;;;;;;7.81;69.49;104172.94;5157134;28;20443;-43
2021/12/18 06:43:16;;;;;;;9.93;4.30;;;;;;;7.76;69.45;104167.81;5171321;28;20426;-44
2021/12/18 06:45:49;;;;;;;11.98;4.28;;;;;;;7.74;69.62;104169.66;5165511;28;20499;-42
2021/12/18 06:48:23;;;;;;;10.35;3.60;;;;;;;7.66;69.59;104173.44;5174644;28;20520;-45
2021/12/18 06:50:55;;;;;;;16.08;4.88;;;;;;;7.52;69.65;104166.81;5164405;28;20489;-45
2021/12/18 06:53:27;;;;;;;22.25;4.95;;;;;;;7.51;69.69;104178.25;5171960;28;20427;-43
2021/12/18 06:56:00;;;;;;;17.77;4.57;;;;;;;7.54;69.67;104170.28;5179678;28;20426;-43
2021/12/18 06:58:32;;;;;;;10.30;4.25;;;;;;;7.63;69.59;104179.66;5167561;28;20419;-44
2021/12/18 07:01:04;;;;;;;21.00;4.67;;;;;;;7.62;69.73;104167.41;5168387;28;20859;-43
2021/12/18 07:03:38;;;;;;;14.88;4.70;;;;;;;7.62;69.56;104172.69;5156865;28;20766;-43
2021/12/18 07:06:10;;;;;;;12.20;4.53;;;;;;;7.61;69.65;104170.94;5169154;28;20431;-47
2021/12/18 07:08:43;;;;;;;12.13;4.35;;;;;;;7.63;69.61;104158.59;5173445;28;20427;-43
2021/12/18 07:11:16;;;;;;;23.87;4.90;;;;;;;7.68;69.43;104161.06;5177769;28;20839;-44
2021/12/18 07:13:48;;;;;;;12.90;4.93;;;;;;;7.70;69.35;104165.38;5171879;28;20412;-42
2021/12/18 07:16:20;;;;;;;17.60;4.75;;;;;;;7.79;69.27;104167.72;5178920;28;20498;-45
2021/12/18 07:18:54;;;;;;;19.23;5.30;;;;;;;7.89;69.16;104170.06;5169987;28;20542;-44
2021/12/18 07:21:26;;;;;;;19.25;4.60;;;;;;;7.93;69.23;104171.66;5174120;28;20553;-42
2021/12/18 07:23:59;;;;;;;20.25;4.00;;;;;;;7.91;69.26;104173.50;5171874;28;20423;-44
2021/12/18 07:26:32;;;;;;;19.93;4.73;;;;;;;7.83;69.33;104171.09;5171746;28;20429;-42
2021/12/18 07:29:04;;;;;;;20.25;4.32;;;;;;;7.78;69.28;104168.66;5164829;28;20897;-43
2021/12/18 07:31:37;;;;;;;28.58;6.82;;;;;;;7.77;69.25;104166.03;5171703;28;20445;-44
2021/12/18 07:34:10;;;;;;;31.58;4.45;;;;;;;7.71;69.41;104164.50;5169980;28;20415;-42
2021/12/18 07:36:43;;;;;;;43.33;5.75;;;;;;;7.58;69.71;104165.78;5173084;28;20430;-42
2021/12/18 07:39:15;;;;;;;24.83;4.65;;;;;;;7.55;69.72;104160.63;5171437;28;20426;-43
2021/12/18 07:41:48;;;;;;;33.28;5.30;;;;;;;7.47;69.58;104154.75;5182715;28;20406;-43
2021/12/18 07:44:20;;;;;;;31.47;5.03;;;;;;;7.51;69.77;104169.53;5171710;28;20403;-44
2021/12/18 07:46:53;;;;;;;24.27;5.35;;;;;;;7.42;69.73;104167.19;5172631;28;20433;-44
2021/12/18 07:49:27;;;;;;;20.58;5.70;;;;;;;7.46;69.67;104166.16;5172214;28;20416;-43
2021/12/18 07:52:02;;;;;;;26.77;6.88;;;;;;;7.56;69.59;104170.25;5166144;28;23385;-44
2021/12/18 07:54:34;;;;;;;23.48;5.40;;;;;;;7.65;69.39;104161.19;5167886;28;20455;-44
2021/12/18 07:57:07;;;;;;;17.53;5.63;;;;;;;7.70;69.36;104154.88;5176955;28;20430;-41
2021/12/18 07:59:40;;;;;;;11.82;4.50;;;;;;;7.72;69.25;104153.06;5169007;28;20425;-43
2021/12/18 08:02:12;;;;;;;18.85;4.80;;;;;;;7.85;69.15;104159.63;5191246;28;20419;-43
2021/12/18 08:04:46;;;;;;;12.27;4.63;;;;;;;7.91;69.10;104153.31;5183051;28;20432;-43
2021/12/18 08:07:18;;;;;;;13.82;4.40;;;;;;;7.99;69.14;104160.94;5178710;28;20409;-43
2021/12/18 08:09:50;;;;;;;13.70;4.70;;;;;;;7.98;69.16;104162.72;5167856;28;20908;-43
2021/12/18 08:12:23;;;;;;;9.73;3.90;;;;;;;7.94;69.17;104158.47;5165805;28;20768;-44
2021/12/18 08:14:55;;;;;;;16.13;4.68;;;;;;;7.84;69.15;104152.66;5169208;28;20500;-45
2021/12/18 08:17:28;;;;;;;14.93;4.30;;;;;;;7.83;69.43;104153.56;5172982;28;20459;-45
2021/12/18 08:20:02;;;;;;;10.07;3.92;;;;;;;7.74;69.38;104164.41;5174650;28;21841;-42
2021/12/18 08:22:34;;;;;;;11.98;4.28;;;;;;;7.66;69.43;104163.78;5170419;28;20405;-43
2021/12/18 08:25:08;;;;;;;22.52;3.90;;;;;;;7.42;69.46;104122.47;5164941;28;20437;-45
2021/12/18 08:27:40;;;;;;;10.10;4.40;;;;;;;7.69;69.66;104165.44;5163967;28;20423;-48
2021/12/18 08:30:14;;;;;;;15.23;4.90;;;;;;;7.72;69.51;104168.84;5165079;28;20435;-44
2021/12/18 08:32:46;;;;;;;23.27;4.33;;;;;;;7.69;69.58;104165.44;5177408;28;20429;-43
2021/12/18 08:35:20;;;;;;;27.40;5.05;;;;;;;7.69;69.60;104163.69;5177735;28;20423;-43
2021/12/18 08:37:52;;;;;;;16.17;4.90;;;;;;;7.75;69.46;104165.25;5177871;28;20447;-43
2021/12/18 08:40:26;;;;;;;19.83;6.38;;;;;;;7.74;69.52;104167.03;5173175;28;20403;-45
2021/12/18 08:42:58;;;;;;;10.73;3.88;;;;;;;7.66;69.46;104169.03;5172965;28;20420;-43
2021/12/18 08:45:31;;;;;;;14.40;5.05;;;;;;;7.59;69.59;104170.16;5179346;28;20412;-41
2021/12/18 08:48:04;;;;;;;13.07;4.75;;;;;;;7.52;69.63;104166.81;5168148;28;20423;-43
2021/12/18 08:50:38;;;;;;;12.05;4.53;;;;;;;7.51;69.61;104180.03;5172038;28;20850;-42
2021/12/18 08:53:11;;;;;;;14.60;4.35;;;;;;;7.43;69.71;104164.47;5168071;28;20435;-45
2021/12/18 08:55:43;;;;;;;19.58;4.10;;;;;;;7.53;69.66;104176.47;5189485;28;20425;-43
2021/12/18 08:58:15;;;;;;;22.48;5.10;;;;;;;7.51;69.66;104175.63;5186846;28;20771;-42
2021/12/18 09:00:49;;;;;;;18.15;4.78;;;;;;;7.30;69.71;104140.34;5184664;28;20828;-42
2021/12/18 09:03:21;;;;;;;15.25;6.00;;;;;;;7.66;69.54;104176.06;5178741;28;20687;-45
2021/12/18 09:05:55;;;;;;;18.23;6.07;;;;;;;7.66;69.56;104179.56;5177988;28;20424;-43
2021/12/18 09:08:28;;;;;;;20.10;6.18;;;;;;;7.71;69.50;104180.28;5179232;28;20419;-42
2021/12/18 09:11:00;;;;;;;18.63;5.88;;;;;;;7.82;69.34;104179.94;5185461;28;20882;-43
2021/12/18 09:13:33;;;;;;;16.90;5.82;;;;;;;7.65;69.26;104135.75;5184854;28;20415;-44
2021/12/18 09:16:06;;;;;;;19.97;6.37;;;;;;;7.98;69.25;104167.13;5169954;28;20506;-43
2021/12/18 09:18:39;;;;;;;17.55;6.55;;;;;;;8.05;69.16;104172.16;5173990;28;20899;-44
2021/12/18 09:21:13;;;;;;;17.85;6.53;;;;;;;8.14;69.21;104168.31;5175111;28;20415;-44
2021/12/18 09:23:45;;;;;;;19.27;5.10;;;;;;;8.16;69.02;104163.88;5182037;28;20409;-44
2021/12/18 09:26:18;;;;;;;17.77;5.10;;;;;;;8.03;69.47;104178.38;5182121;28;20411;-44
2021/12/18 09:28:50;;;;;;;13.35;4.75;;;;;;;7.99;69.37;104179.34;5189459;28;20420;-42
2021/12/18 09:31:24;;;;;;;29.85;4.97;;;;;;;8.00;69.37;104178.47;5168933;28;20915;-44
2021/12/18 09:33:56;;;;;;;8.90;4.45;;;;;;;8.03;69.40;104173.09;5180795;28;20401;-43
2021/12/18 09:36:30;;;;;;;20.70;5.18;;;;;;;8.07;69.41;104165.03;5187074;28;20528;-45
2021/12/18 09:39:03;;;;;;;12.93;5.57;;;;;;;8.04;69.40;104166.91;5177655;28;20933;-43
2021/12/18 09:41:36;;;;;;;11.40;4.53;;;;;;;7.98;69.40;104170.59;5179432;28;20401;-44
2021/12/18 09:44:09;;;;;;;20.95;4.57;;;;;;;7.97;69.54;104165.41;5167537;28;20480;-44
2021/12/18 09:46:41;;;;;;;7.50;3.87;;;;;;;7.96;69.58;104172.44;5167143;28;20413;-44
2021/12/18 09:49:14;;;;;;;7.20;3.25;;;;;;;7.94;69.59;104171.63;5173366;28;20853;-44
2021/12/18 09:51:48;;;;;;;8.10;4.30;;;;;;;7.95;69.77;104172.47;5174513;28;20442;-42
2021/12/18 09:54:21;;;;;;;6.93;4.18;;;;;;;7.91;69.67;104169.09;5177986;28;20491;-43
2021/12/18 09:56:54;;;;;;;7.85;4.28;;;;;;;8.03;69.69;104171.31;5171947;28;20418;-46
2021/12/18 09:59:27;;;;;;;8.30;4.05;;;;;;;8.08;69.61;104165.88;5164877;28;20429;-44
2021/12/18 10:01:59;;;;;;;9.23;4.75;;;;;;;8.09;69.59;104163.22;5182031;28;20496;-43
2021/12/18 10:04:34;;;;;;;10.73;4.18;;;;;;;8.00;69.63;104160.91;5171779;28;20409;-45
2021/12/18 10:07:20;;;;;;;8.68;4.22;;;;;;;7.88;69.49;104148.16;5182501;28;20419;-44
2021/12/18 10:09:57;;;;;;;10.55;3.90;;;;;;;7.97;69.70;104168.03;5180722;28;20415;-44
2021/12/18 10:12:32;;;;;;;11.25;4.55;;;;;;;7.96;69.80;104166.31;5184008;28;20492;-47
2021/12/18 10:15:13;;;;;;;7.90;4.10;;;;;;;8.05;69.94;104166.00;5177622;28;20504;-43
2021/12/18 10:17:46;;;;;;;9.80;4.53;;;;;;;8.13;69.68;104163.13;5183514;28;20422;-43
2021/12/18 10:20:22;;;;;;;7.97;4.60;;;;;;;8.19;69.69;104158.50;5173476;28;20928;-43
2021/12/18 10:23:02;;;;;;;8.32;4.07;;;;;;;8.28;69.12;104137.13;5173076;28;20471;-43
2021/12/18 10:25:40;;;;;;;8.65;4.28;;;;;;;7.99;69.28;104100.41;5170928;28;20414;-47
2021/12/18 10:28:18;;;;;;;9.50;3.88;;;;;;;8.35;69.56;104156.19;5164860;28;20447;-44
2021/12/18 10:30:53;;;;;;;10.52;4.07;;;;;;;8.40;69.52;104148.16;5166775;28;20843;-43
2021/12/18 10:33:29;;;;;;;9.07;4.43;;;;;;;8.46;69.48;104148.81;5174391;28;20956;-43
2021/12/18 10:36:02;;;;;;;28.85;4.07;;;;;;;8.49;69.20;104139.94;5173586;28;20851;-45
2021/12/18 10:38:47;;;;;;;12.45;5.72;;;;;;;8.51;69.49;104141.59;5162508;28;20400;-44
2021/12/18 10:41:24;;;;;;;14.43;4.03;;;;;;;8.57;69.37;104142.28;5174108;28;20430;-43
2021/12/18 10:44:03;;;;;;;14.27;4.55;;;;;;;8.55;69.38;104134.44;5180143;28;20847;-44
2021/12/18 10:46:38;;;;;;;12.37;4.40;;;;;;;8.61;69.42;104134.22;5171070;28;20958;-42
2021/12/18 10:49:13;;;;;;;7.32;4.10;;;;;;;8.70;69.17;104126.00;5176201;28;20498;-44
2021/12/18 10:51:48;;;;;;;7.13;4.43;;;;;;;8.88;69.01;104131.47;5174804;28;20412;-42
2021/12/18 10:54:23;;;;;;;7.93;4.60;;;;;;;9.01;68.95;104132.72;5175201;28;20427;-43
2021/12/18 10:56:56;;;;;;;7.15;3.70;;;;;;;9.13;68.86;104132.25;5169507;28;20427;-43
2021/12/18 10:59:32;;;;;;;8.68;4.30;;;;;;;9.23;68.83;104130.97;5168229;28;20517;-44
2021/12/18 11:02:14;;;;;;;20.50;4.53;;;;;;;9.27;68.71;104122.94;5168677;28;20420;-43
2021/12/18 11:04:46;;;;;;;7.95;4.28;;;;;;;9.27;69.02;104125.59;5160061;28;20537;-47
2021/12/18 11:07:22;;;;;;;16.05;4.30;;;;;;;9.20;68.98;104136.38;5172982;28;20447;-43
2021/12/18 11:10:12;;;;;;;4.80;3.92;;;;;;;9.08;69.25;104133.38;5173653;28;20833;-44
2021/12/18 11:15:36;;;;;;;4.22;3.10;;;;;;;8.88;69.46;104136.75;5175182;28;20486;-43
2021/12/18 11:18:10;;;;;;;5.78;3.38;;;;;;;8.95;69.51;104130.31;5150880;28;20776;-43
2021/12/18 11:20:43;;;;;;;7.50;3.33;;;;;;;9.04;69.24;104122.03;5173335;28;20490;-43
2021/12/18 11:23:17;;;;;;;10.80;3.80;;;;;;;9.05;69.20;104123.78;5175047;28;20859;-43
2021/12/18 11:25:55;;;;;;;6.28;3.90;;;;;;;9.19;69.21;104132.00;5163135;28;20423;-43
2021/12/18 11:28:30;;;;;;;6.60;4.28;;;;;;;9.30;68.96;104118.41;5179774;28;20517;-46
2021/12/18 11:31:02;;;;;;;6.30;4.95;;;;;;;9.46;68.92;104114.22;5164733;28;20417;-42
2021/12/18 11:33:35;;;;;;;5.18;4.38;;;;;;;9.58;68.68;104109.38;5169035;28;20421;-46
2021/12/18 11:36:08;;;;;;;4.82;3.53;;;;;;;9.72;68.69;104114.06;5161414;28;20440;-44
2021/12/18 11:38:43;;;;;;;3.72;3.20;;;;;;;9.81;68.59;104105.78;5175724;28;20479;-50
2021/12/18 11:41:19;;;;;;;5.22;3.55;;;;;;;9.89;68.83;104106.31;5182729;28;20425;-44
2021/12/18 11:43:51;;;;;;;5.25;4.30;;;;;;;9.95;68.54;104098.13;5171636;28;20842;-44
2021/12/18 11:46:37;;;;;;;6.60;4.30;;;;;;;10.04;68.52;104100.38;5171005;28;20799;-44
2021/12/18 11:49:11;;;;;;;5.88;3.83;;;;;;;10.17;68.41;104098.06;5179148;28;20415;-45
2021/12/18 11:51:59;;;;;;;4.40;3.67;;;;;;;10.22;68.38;104103.13;5173484;28;20409;-45
2021/12/18 11:54:50;;;;;;;7.85;5.32;;;;;;;10.20;68.44;104099.72;5180008;28;20416;-42
2021/12/18 11:57:44;;;;;;;7.50;4.43;;;;;;;10.22;68.40;104088.16;5173540;28;20433;-44
2021/12/18 12:00:47;;;;;;;5.38;4.45;;;;;;;10.25;68.53;104092.41;5169902;28;20427;-43
2021/12/18 12:03:38;;;;;;;4.65;3.60;;;;;;;10.31;68.46;104089.53;5134521;28;20792;-44
2021/12/18 12:06:27;;;;;;;3.60;2.60;;;;;;;10.21;68.40;104054.72;5172626;28;20422;-46
2021/12/18 12:09:27;;;;;;;7.75;4.70;;;;;;;10.47;68.21;104087.09;5181132;28;21414;-47
2021/12/18 12:12:02;;;;;;;8.63;4.90;;;;;;;10.50;68.07;104089.56;5173888;28;20432;-44
2021/12/18 12:14:37;;;;;;;11.05;5.57;;;;;;;10.47;68.09;104081.81;5174422;28;20417;-43
2021/12/18 12:17:17;;;;;;;21.80;10.60;;;;;;;10.59;68.21;104083.88;5179627;28;20475;-45
2021/12/18 12:20:00;;;;;;;40.13;20.20;;;;;;;10.60;68.06;104081.16;5170891;28;20454;-44
2021/12/18 12:22:54;;;;;;;49.95;23.52;;;;;;;10.61;68.08;104069.66;5178559;28;20768;-45
2021/12/18 12:25:50;;;;;;;43.00;21.23;;;;;;;10.66;67.94;104068.59;5167374;28;20426;-44
2021/12/18 12:28:25;;;;;;;51.08;23.75;;;;;;;10.68;67.86;104066.72;5170576;28;20790;-45
2021/12/18 12:31:12;;;;;;;31.35;15.20;;;;;;;10.67;67.92;104071.16;5166644;28;20431;-45
2021/12/18 12:33:45;;;;;;;36.10;15.90;;;;;;;10.69;67.73;104065.81;5174454;28;20425;-44
2021/12/18 12:36:26;;;;;;;28.13;13.50;;;;;;;10.69;67.88;104071.09;5172881;28;20769;-43